sensor_id;sensor_type;location;lat;lon;timestamp;P1;durP1;ratioP1;P2;durP2;ratioP2
69979;SDS011;57318;56.232;43.944;2022-10-22T00:01:11;9.70;;;3.70;;
69979;SDS011;57318;56.232;43.944;2022-10-22T00:03:37;10.47;;;3.50;;
69979;SDS011;57318;56.232;43.944;2022-10-22T00:06:02;5.47;;;2.93;;
69979;SDS011;57318;56.232;43.944;2022-10-22T00:08:28;5.47;;;2.53;;
69979;SDS011;57318;56.232;43.944;2022-10-22T00:10:54;5.90;;;2.67;;
69979;SDS011;57318;56.232;43.944;2022-10-22T00:13:20;5.30;;;2.43;;
69979;SDS011;57318;56.232;43.944;2022-10-22T00:15:45;6.30;;;3.30;;
69979;SDS011;57318;56.232;43.944;2022-10-22T00:18:11;8.93;;;3.20;;
69979;SDS011;57318;56.232;43.944;2022-10-22T00:20:37;9.93;;;2.80;;
69979;SDS011;57318;56.232;43.944;2022-10-22T00:23:02;7.40;;;3.13;;
69979;SDS011;57318;56.232;43.944;2022-10-22T00:25:28;6.87;;;2.50;;
69979;SDS011;57318;56.232;43.944;2022-10-22T00:27:53;6.57;;;2.70;;
69979;SDS011;57318;56.232;43.944;2022-10-22T00:30:19;4.67;;;2.33;;
69979;SDS011;57318;56.232;43.944;2022-10-22T00:32:44;6.83;;;2.93;;
69979;SDS011;57318;56.232;43.944;2022-10-22T00:35:10;8.43;;;2.57;;
69979;SDS011;57318;56.232;43.944;2022-10-22T00:37:36;5.10;;;2.20;;
69979;SDS011;57318;56.232;43.944;2022-10-22T00:40:02;5.20;;;2.30;;
69979;SDS011;57318;56.232;43.944;2022-10-22T00:42:29;5.35;;;2.85;;
69979;SDS011;57318;56.232;43.944;2022-10-22T00:45:13;6.80;;;2.50;;
69979;SDS011;57318;56.232;43.944;2022-10-22T00:47:43;6.47;;;2.90;;
69979;SDS011;57318;56.232;43.944;2022-10-22T00:50:16;5.80;;;2.70;;
69979;SDS011;57318;56.232;43.944;2022-10-22T00:52:46;8.07;;;2.58;;
69979;SDS011;57318;56.232;43.944;2022-10-22T00:55:12;4.30;;;2.33;;
69979;SDS011;57318;56.232;43.944;2022-10-22T00:57:39;4.85;;;2.63;;
69979;SDS011;57318;56.232;43.944;2022-10-22T01:00:05;7.13;;;2.40;;
69979;SDS011;57318;56.232;43.944;2022-10-22T01:02:31;4.15;;;2.47;;
69979;SDS011;57318;56.232;43.944;2022-10-22T01:04:57;6.63;;;2.50;;
69979;SDS011;57318;56.232;43.944;2022-10-22T01:07:23;4.17;;;2.37;;
69979;SDS011;57318;56.232;43.944;2022-10-22T01:18:09;3.90;;;2.13;;
69979;SDS011;57318;56.232;43.944;2022-10-22T01:28:45;10.40;;;2.58;;
69979;SDS011;57318;56.232;43.944;2022-10-22T01:31:17;5.72;;;2.78;;
69979;SDS011;57318;56.232;43.944;2022-10-22T01:33:55;6.60;;;2.60;;
69979;SDS011;57318;56.232;43.944;2022-10-22T01:36:24;4.20;;;2.15;;
69979;SDS011;57318;56.232;43.944;2022-10-22T01:38:52;7.10;;;2.47;;
69979;SDS011;57318;56.232;43.944;2022-10-22T01:41:19;5.45;;;2.50;;
69979;SDS011;57318;56.232;43.944;2022-10-22T01:43:45;1.90;;;1.70;;
69979;SDS011;57318;56.232;43.944;2022-10-22T01:46:11;5.87;;;1.73;;
69979;SDS011;57318;56.232;43.944;2022-10-22T01:48:56;4.15;;;2.35;;
69979;SDS011;57318;56.232;43.944;2022-10-22T01:57:27;2.85;;;1.70;;
69979;SDS011;57318;56.232;43.944;2022-10-22T02:00:12;3.42;;;1.67;;
69979;SDS011;57318;56.232;43.944;2022-10-22T02:05:18;6.38;;;2.65;;
69979;SDS011;57318;56.232;43.944;2022-10-22T02:08:07;5.68;;;2.15;;
69979;SDS011;57318;56.232;43.944;2022-10-22T02:10:38;2.92;;;1.90;;
69979;SDS011;57318;56.232;43.944;2022-10-22T02:13:07;3.63;;;2.13;;
69979;SDS011;57318;56.232;43.944;2022-10-22T02:15:36;4.10;;;2.20;;
69979;SDS011;57318;56.232;43.944;2022-10-22T02:18:04;4.25;;;1.98;;
69979;SDS011;57318;56.232;43.944;2022-10-22T02:20:33;5.90;;;1.95;;
69979;SDS011;57318;56.232;43.944;2022-10-22T02:23:00;3.65;;;1.90;;
69979;SDS011;57318;56.232;43.944;2022-10-22T02:25:28;2.70;;;2.00;;
69979;SDS011;57318;56.232;43.944;2022-10-22T02:28:02;2.67;;;1.70;;
69979;SDS011;57318;56.232;43.944;2022-10-22T02:30:37;4.53;;;1.80;;
69979;SDS011;57318;56.232;43.944;2022-10-22T02:33:08;3.33;;;1.80;;
69979;SDS011;57318;56.232;43.944;2022-10-22T02:35:55;4.43;;;2.00;;
69979;SDS011;57318;56.232;43.944;2022-10-22T02:38:22;4.15;;;2.28;;
69979;SDS011;57318;56.232;43.944;2022-10-22T02:40:50;4.43;;;1.80;;
69979;SDS011;57318;56.232;43.944;2022-10-22T02:43:16;4.30;;;2.13;;
69979;SDS011;57318;56.232;43.944;2022-10-22T02:45:43;2.85;;;1.77;;
69979;SDS011;57318;56.232;43.944;2022-10-22T02:48:09;3.60;;;2.00;;
69979;SDS011;57318;56.232;43.944;2022-10-22T02:50:34;5.30;;;2.03;;
69979;SDS011;57318;56.232;43.944;2022-10-22T02:53:00;8.50;;;2.60;;
69979;SDS011;57318;56.232;43.944;2022-10-22T02:55:26;2.73;;;1.87;;
69979;SDS011;57318;56.232;43.944;2022-10-22T02:57:52;3.30;;;1.83;;
69979;SDS011;57318;56.232;43.944;2022-10-22T03:00:17;2.97;;;1.77;;
69979;SDS011;57318;56.232;43.944;2022-10-22T03:02:43;3.15;;;1.90;;
69979;SDS011;57318;56.232;43.944;2022-10-22T03:05:09;2.57;;;1.80;;
69979;SDS011;57318;56.232;43.944;2022-10-22T03:07:35;6.28;;;2.47;;
69979;SDS011;57318;56.232;43.944;2022-10-22T03:10:00;4.77;;;2.30;;
69979;SDS011;57318;56.232;43.944;2022-10-22T03:12:26;3.17;;;1.73;;
69979;SDS011;57318;56.232;43.944;2022-10-22T03:14:52;3.63;;;1.83;;
69979;SDS011;57318;56.232;43.944;2022-10-22T03:17:17;3.33;;;1.60;;
69979;SDS011;57318;56.232;43.944;2022-10-22T03:19:43;4.17;;;2.13;;
69979;SDS011;57318;56.232;43.944;2022-10-22T03:22:10;4.43;;;2.13;;
69979;SDS011;57318;56.232;43.944;2022-10-22T03:24:46;3.63;;;1.75;;
69979;SDS011;57318;56.232;43.944;2022-10-22T03:27:16;2.40;;;1.60;;
69979;SDS011;57318;56.232;43.944;2022-10-22T03:29:44;4.20;;;1.70;;
69979;SDS011;57318;56.232;43.944;2022-10-22T03:34:37;2.78;;;1.60;;
69979;SDS011;57318;56.232;43.944;2022-10-22T03:37:02;3.70;;;2.00;;
69979;SDS011;57318;56.232;43.944;2022-10-22T03:39:28;3.23;;;1.80;;
69979;SDS011;57318;56.232;43.944;2022-10-22T03:41:57;3.17;;;1.90;;
69979;SDS011;57318;56.232;43.944;2022-10-22T03:44:23;3.15;;;1.75;;
69979;SDS011;57318;56.232;43.944;2022-10-22T03:46:49;3.38;;;1.90;;
69979;SDS011;57318;56.232;43.944;2022-10-22T03:49:15;3.13;;;1.97;;
69979;SDS011;57318;56.232;43.944;2022-10-22T03:51:48;3.88;;;1.90;;
69979;SDS011;57318;56.232;43.944;2022-10-22T03:54:16;5.03;;;2.55;;
69979;SDS011;57318;56.232;43.944;2022-10-22T03:56:42;4.67;;;2.30;;
69979;SDS011;57318;56.232;43.944;2022-10-22T03:59:08;5.78;;;2.53;;
69979;SDS011;57318;56.232;43.944;2022-10-22T04:01:50;4.57;;;2.53;;
69979;SDS011;57318;56.232;43.944;2022-10-22T04:04:15;5.13;;;2.60;;
69979;SDS011;57318;56.232;43.944;2022-10-22T04:06:41;5.23;;;2.93;;
69979;SDS011;57318;56.232;43.944;2022-10-22T04:09:07;4.27;;;2.60;;
69979;SDS011;57318;56.232;43.944;2022-10-22T04:11:32;4.33;;;2.63;;
69979;SDS011;57318;56.232;43.944;2022-10-22T04:13:58;6.63;;;3.57;;
69979;SDS011;57318;56.232;43.944;2022-10-22T04:16:23;6.80;;;3.40;;
69979;SDS011;57318;56.232;43.944;2022-10-22T04:18:55;10.10;;;3.67;;
69979;SDS011;57318;56.232;43.944;2022-10-22T04:21:21;5.65;;;3.30;;
69979;SDS011;57318;56.232;43.944;2022-10-22T04:23:50;6.35;;;3.10;;
69979;SDS011;57318;56.232;43.944;2022-10-22T04:26:17;9.95;;;3.92;;
69979;SDS011;57318;56.232;43.944;2022-10-22T04:28:43;6.35;;;3.38;;
69979;SDS011;57318;56.232;43.944;2022-10-22T04:31:11;4.53;;;3.25;;
69979;SDS011;57318;56.232;43.944;2022-10-22T04:33:38;8.40;;;4.38;;
69979;SDS011;57318;56.232;43.944;2022-10-22T04:36:08;9.10;;;4.70;;
69979;SDS011;57318;56.232;43.944;2022-10-22T04:38:36;8.95;;;3.67;;
69979;SDS011;57318;56.232;43.944;2022-10-22T04:43:42;4.70;;;3.42;;
69979;SDS011;57318;56.232;43.944;2022-10-22T04:46:09;7.28;;;3.72;;
69979;SDS011;57318;56.232;43.944;2022-10-22T04:48:36;6.18;;;3.63;;
69979;SDS011;57318;56.232;43.944;2022-10-22T04:51:04;8.55;;;3.67;;
69979;SDS011;57318;56.232;43.944;2022-10-22T04:53:31;7.63;;;3.80;;
69979;SDS011;57318;56.232;43.944;2022-10-22T04:58:46;6.57;;;3.30;;
69979;SDS011;57318;56.232;43.944;2022-10-22T05:01:14;7.95;;;4.15;;
69979;SDS011;57318;56.232;43.944;2022-10-22T05:03:42;8.60;;;4.30;;
69979;SDS011;57318;56.232;43.944;2022-10-22T05:06:09;7.95;;;4.28;;
69979;SDS011;57318;56.232;43.944;2022-10-22T05:11:08;10.88;;;4.18;;
69979;SDS011;57318;56.232;43.944;2022-10-22T05:13:37;11.57;;;4.88;;
69979;SDS011;57318;56.232;43.944;2022-10-22T05:16:03;10.60;;;5.20;;
69979;SDS011;57318;56.232;43.944;2022-10-22T05:18:29;9.77;;;5.67;;
69979;SDS011;57318;56.232;43.944;2022-10-22T05:20:54;11.10;;;5.63;;
69979;SDS011;57318;56.232;43.944;2022-10-22T05:23:20;14.77;;;4.90;;
69979;SDS011;57318;56.232;43.944;2022-10-22T05:25:46;12.13;;;5.30;;
69979;SDS011;57318;56.232;43.944;2022-10-22T05:28:11;8.33;;;5.13;;
69979;SDS011;57318;56.232;43.944;2022-10-22T05:30:37;13.43;;;4.07;;
69979;SDS011;57318;56.232;43.944;2022-10-22T05:33:03;7.93;;;3.80;;
69979;SDS011;57318;56.232;43.944;2022-10-22T05:35:28;7.60;;;4.13;;
69979;SDS011;57318;56.232;43.944;2022-10-22T05:37:54;7.97;;;3.90;;
69979;SDS011;57318;56.232;43.944;2022-10-22T05:40:19;7.17;;;4.17;;
69979;SDS011;57318;56.232;43.944;2022-10-22T05:42:45;9.70;;;4.63;;
69979;SDS011;57318;56.232;43.944;2022-10-22T05:45:11;7.70;;;3.90;;
69979;SDS011;57318;56.232;43.944;2022-10-22T05:47:36;7.40;;;4.07;;
69979;SDS011;57318;56.232;43.944;2022-10-22T05:50:02;9.23;;;4.03;;
69979;SDS011;57318;56.232;43.944;2022-10-22T05:52:28;8.07;;;3.85;;
69979;SDS011;57318;56.232;43.944;2022-10-22T05:54:54;7.77;;;4.40;;
69979;SDS011;57318;56.232;43.944;2022-10-22T05:57:19;6.93;;;3.77;;
69979;SDS011;57318;56.232;43.944;2022-10-22T05:59:45;8.17;;;3.73;;
69979;SDS011;57318;56.232;43.944;2022-10-22T06:02:11;8.00;;;3.80;;
69979;SDS011;57318;56.232;43.944;2022-10-22T06:04:36;6.13;;;3.27;;
69979;SDS011;57318;56.232;43.944;2022-10-22T06:07:02;5.77;;;3.50;;
69979;SDS011;57318;56.232;43.944;2022-10-22T06:09:29;7.73;;;3.70;;
69979;SDS011;57318;56.232;43.944;2022-10-22T06:11:59;7.07;;;3.90;;
69979;SDS011;57318;56.232;43.944;2022-10-22T06:14:25;7.38;;;3.75;;
69979;SDS011;57318;56.232;43.944;2022-10-22T06:16:52;8.63;;;4.43;;
69979;SDS011;57318;56.232;43.944;2022-10-22T06:19:19;6.65;;;4.60;;
69979;SDS011;57318;56.232;43.944;2022-10-22T06:21:45;12.50;;;5.00;;
69979;SDS011;57318;56.232;43.944;2022-10-22T06:24:12;6.95;;;4.57;;
69979;SDS011;57318;56.232;43.944;2022-10-22T06:26:38;7.65;;;4.57;;
69979;SDS011;57318;56.232;43.944;2022-10-22T06:29:05;9.15;;;5.20;;
69979;SDS011;57318;56.232;43.944;2022-10-22T06:31:31;8.65;;;5.20;;
69979;SDS011;57318;56.232;43.944;2022-10-22T06:34:01;9.45;;;5.55;;
69979;SDS011;57318;56.232;43.944;2022-10-22T06:36:28;8.98;;;5.38;;
69979;SDS011;57318;56.232;43.944;2022-10-22T06:38:54;9.43;;;5.50;;
69979;SDS011;57318;56.232;43.944;2022-10-22T06:41:21;10.85;;;5.97;;
69979;SDS011;57318;56.232;43.944;2022-10-22T06:46:14;9.15;;;5.72;;
69979;SDS011;57318;56.232;43.944;2022-10-22T06:48:49;13.40;;;6.25;;
69979;SDS011;57318;56.232;43.944;2022-10-22T06:51:16;14.30;;;6.38;;
69979;SDS011;57318;56.232;43.944;2022-10-22T06:53:41;8.52;;;5.32;;
69979;SDS011;57318;56.232;43.944;2022-10-22T06:56:08;9.50;;;6.27;;
69979;SDS011;57318;56.232;43.944;2022-10-22T06:58:38;9.35;;;5.97;;
69979;SDS011;57318;56.232;43.944;2022-10-22T07:01:05;7.87;;;5.27;;
69979;SDS011;57318;56.232;43.944;2022-10-22T07:03:33;6.78;;;4.85;;
69979;SDS011;57318;56.232;43.944;2022-10-22T07:06:00;10.25;;;6.00;;
69979;SDS011;57318;56.232;43.944;2022-10-22T07:08:26;8.25;;;5.63;;
69979;SDS011;57318;56.232;43.944;2022-10-22T07:13:18;13.50;;;7.57;;
69979;SDS011;57318;56.232;43.944;2022-10-22T07:15:44;11.80;;;7.60;;
69979;SDS011;57318;56.232;43.944;2022-10-22T07:18:10;13.10;;;7.63;;
69979;SDS011;57318;56.232;43.944;2022-10-22T07:20:35;14.90;;;7.80;;
69979;SDS011;57318;56.232;43.944;2022-10-22T07:23:01;12.13;;;7.90;;
69979;SDS011;57318;56.232;43.944;2022-10-22T07:25:26;14.37;;;8.60;;
69979;SDS011;57318;56.232;43.944;2022-10-22T07:27:52;15.60;;;8.97;;
69979;SDS011;57318;56.232;43.944;2022-10-22T07:30:18;14.97;;;8.93;;
69979;SDS011;57318;56.232;43.944;2022-10-22T07:32:43;13.60;;;7.70;;
69979;SDS011;57318;56.232;43.944;2022-10-22T07:35:09;11.70;;;8.23;;
69979;SDS011;57318;56.232;43.944;2022-10-22T07:37:34;11.13;;;7.27;;
69979;SDS011;57318;56.232;43.944;2022-10-22T07:40:00;8.93;;;6.43;;
69979;SDS011;57318;56.232;43.944;2022-10-22T07:42:26;10.40;;;6.33;;
69979;SDS011;57318;56.232;43.944;2022-10-22T07:44:51;9.03;;;6.40;;
69979;SDS011;57318;56.232;43.944;2022-10-22T07:47:17;12.23;;;7.63;;
69979;SDS011;57318;56.232;43.944;2022-10-22T07:49:43;10.87;;;6.93;;
69979;SDS011;57318;56.232;43.944;2022-10-22T07:52:08;14.53;;;6.97;;
69979;SDS011;57318;56.232;43.944;2022-10-22T07:54:34;11.73;;;6.60;;
69979;SDS011;57318;56.232;43.944;2022-10-22T07:56:59;10.93;;;6.83;;
69979;SDS011;57318;56.232;43.944;2022-10-22T07:59:25;10.20;;;7.20;;
69979;SDS011;57318;56.232;43.944;2022-10-22T08:01:51;12.37;;;6.83;;
69979;SDS011;57318;56.232;43.944;2022-10-22T08:04:16;13.63;;;7.07;;
69979;SDS011;57318;56.232;43.944;2022-10-22T08:06:42;11.47;;;7.17;;
69979;SDS011;57318;56.232;43.944;2022-10-22T08:09:08;15.57;;;7.97;;
69979;SDS011;57318;56.232;43.944;2022-10-22T08:11:33;15.50;;;7.20;;
69979;SDS011;57318;56.232;43.944;2022-10-22T08:13:59;8.90;;;7.07;;
69979;SDS011;57318;56.232;43.944;2022-10-22T08:16:25;11.73;;;7.07;;
69979;SDS011;57318;56.232;43.944;2022-10-22T08:18:50;11.67;;;7.53;;
69979;SDS011;57318;56.232;43.944;2022-10-22T08:21:16;14.97;;;7.07;;
69979;SDS011;57318;56.232;43.944;2022-10-22T08:23:42;13.07;;;8.00;;
69979;SDS011;57318;56.232;43.944;2022-10-22T08:26:08;16.45;;;7.57;;
69979;SDS011;57318;56.232;43.944;2022-10-22T08:28:35;12.65;;;7.60;;
69979;SDS011;57318;56.232;43.944;2022-10-22T08:31:04;13.32;;;8.02;;
69979;SDS011;57318;56.232;43.944;2022-10-22T08:33:31;16.60;;;8.18;;
69979;SDS011;57318;56.232;43.944;2022-10-22T08:35:57;12.35;;;8.18;;
69979;SDS011;57318;56.232;43.944;2022-10-22T08:38:23;13.90;;;7.80;;
69979;SDS011;57318;56.232;43.944;2022-10-22T08:40:53;11.37;;;7.37;;
69979;SDS011;57318;56.232;43.944;2022-10-22T08:49:03;13.88;;;7.63;;
69979;SDS011;57318;56.232;43.944;2022-10-22T08:51:33;12.98;;;8.30;;
69979;SDS011;57318;56.232;43.944;2022-10-22T08:57:02;15.35;;;7.95;;
69979;SDS011;57318;56.232;43.944;2022-10-22T08:59:43;15.30;;;7.32;;
69979;SDS011;57318;56.232;43.944;2022-10-22T09:07:38;17.00;;;8.63;;
69979;SDS011;57318;56.232;43.944;2022-10-22T09:10:07;16.20;;;7.93;;
69979;SDS011;57318;56.232;43.944;2022-10-22T09:12:35;14.82;;;7.70;;
69979;SDS011;57318;56.232;43.944;2022-10-22T09:15:01;23.00;;;8.37;;
69979;SDS011;57318;56.232;43.944;2022-10-22T09:17:40;26.58;;;9.15;;
69979;SDS011;57318;56.232;43.944;2022-10-22T09:20:21;20.25;;;10.10;;
69979;SDS011;57318;56.232;43.944;2022-10-22T09:25:46;18.40;;;7.88;;
69979;SDS011;57318;56.232;43.944;2022-10-22T09:28:15;21.85;;;7.47;;
69979;SDS011;57318;56.232;43.944;2022-10-22T09:30:41;15.27;;;6.72;;
69979;SDS011;57318;56.232;43.944;2022-10-22T09:33:15;20.17;;;6.88;;
69979;SDS011;57318;56.232;43.944;2022-10-22T09:36:01;21.60;;;7.30;;
69979;SDS011;57318;56.232;43.944;2022-10-22T09:38:31;14.23;;;6.20;;
69979;SDS011;57318;56.232;43.944;2022-10-22T09:40:59;14.68;;;6.90;;
69979;SDS011;57318;56.232;43.944;2022-10-22T09:43:27;19.10;;;7.30;;
69979;SDS011;57318;56.232;43.944;2022-10-22T09:45:57;15.47;;;7.43;;
69979;SDS011;57318;56.232;43.944;2022-10-22T09:48:28;16.23;;;6.88;;
69979;SDS011;57318;56.232;43.944;2022-10-22T09:51:09;14.23;;;7.20;;
69979;SDS011;57318;56.232;43.944;2022-10-22T09:53:36;15.95;;;6.53;;
69979;SDS011;57318;56.232;43.944;2022-10-22T09:56:06;11.88;;;6.03;;
69979;SDS011;57318;56.232;43.944;2022-10-22T09:58:41;19.00;;;6.53;;
69979;SDS011;57318;56.232;43.944;2022-10-22T10:01:14;15.77;;;6.65;;
69979;SDS011;57318;56.232;43.944;2022-10-22T10:03:42;15.77;;;6.85;;
69979;SDS011;57318;56.232;43.944;2022-10-22T10:06:07;26.87;;;8.07;;
69979;SDS011;57318;56.232;43.944;2022-10-22T10:08:33;32.73;;;10.27;;
69979;SDS011;57318;56.232;43.944;2022-10-22T10:11:07;19.67;;;7.27;;
69979;SDS011;57318;56.232;43.944;2022-10-22T10:22:24;17.70;;;7.47;;
69979;SDS011;57318;56.232;43.944;2022-10-22T10:25:42;18.95;;;7.22;;
69979;SDS011;57318;56.232;43.944;2022-10-22T10:33:50;13.93;;;6.68;;
69979;SDS011;57318;56.232;43.944;2022-10-22T10:39:33;23.38;;;8.13;;
69979;SDS011;57318;56.232;43.944;2022-10-22T10:45:28;22.90;;;7.40;;
69979;SDS011;57318;56.232;43.944;2022-10-22T10:50:52;10.20;;;5.28;;
69979;SDS011;57318;56.232;43.944;2022-10-22T11:04:39;14.40;;;5.90;;
69979;SDS011;57318;56.232;43.944;2022-10-22T11:07:23;16.00;;;6.25;;
69979;SDS011;57318;56.232;43.944;2022-10-22T11:09:56;12.48;;;6.10;;
69979;SDS011;57318;56.232;43.944;2022-10-22T11:12:30;14.18;;;7.20;;
69979;SDS011;57318;56.232;43.944;2022-10-22T11:17:50;16.60;;;7.60;;
69979;SDS011;57318;56.232;43.944;2022-10-22T11:23:05;19.65;;;8.73;;
69979;SDS011;57318;56.232;43.944;2022-10-22T11:25:45;20.27;;;8.85;;
69979;SDS011;57318;56.232;43.944;2022-10-22T11:28:14;17.63;;;9.20;;
69979;SDS011;57318;56.232;43.944;2022-10-22T11:31:00;21.00;;;10.07;;
69979;SDS011;57318;56.232;43.944;2022-10-22T11:33:34;18.30;;;8.70;;
69979;SDS011;57318;56.232;43.944;2022-10-22T11:36:07;22.70;;;9.20;;
69979;SDS011;57318;56.232;43.944;2022-10-22T11:38:35;18.55;;;9.02;;
69979;SDS011;57318;56.232;43.944;2022-10-22T11:41:05;18.20;;;8.90;;
69979;SDS011;57318;56.232;43.944;2022-10-22T11:46:42;18.92;;;8.35;;
69979;SDS011;57318;56.232;43.944;2022-10-22T11:51:39;14.05;;;7.20;;
69979;SDS011;57318;56.232;43.944;2022-10-22T11:57:17;15.25;;;7.40;;
69979;SDS011;57318;56.232;43.944;2022-10-22T11:59:57;17.08;;;7.43;;
69979;SDS011;57318;56.232;43.944;2022-10-22T12:08:24;14.43;;;7.32;;
69979;SDS011;57318;56.232;43.944;2022-10-22T12:10:34;14.07;;;7.22;;
69979;SDS011;57318;56.232;43.944;2022-10-22T12:13:19;13.23;;;7.15;;
69979;SDS011;57318;56.232;43.944;2022-10-22T12:15:51;14.50;;;6.65;;
69979;SDS011;57318;56.232;43.944;2022-10-22T12:18:22;13.60;;;7.05;;
69979;SDS011;57318;56.232;43.944;2022-10-22T12:20:51;16.40;;;7.55;;
69979;SDS011;57318;56.232;43.944;2022-10-22T12:23:18;19.70;;;9.35;;
69979;SDS011;57318;56.232;43.944;2022-10-22T12:25:48;20.88;;;8.77;;
69979;SDS011;57318;56.232;43.944;2022-10-22T12:28:14;20.47;;;8.53;;
69979;SDS011;57318;56.232;43.944;2022-10-22T12:30:40;24.13;;;10.90;;
69979;SDS011;57318;56.232;43.944;2022-10-22T12:33:07;22.77;;;11.30;;
69979;SDS011;57318;56.232;43.944;2022-10-22T12:35:44;23.80;;;11.02;;
69979;SDS011;57318;56.232;43.944;2022-10-22T12:38:15;23.83;;;10.02;;
69979;SDS011;57318;56.232;43.944;2022-10-22T12:40:45;19.80;;;9.60;;
69979;SDS011;57318;56.232;43.944;2022-10-22T12:43:29;14.98;;;7.57;;
69979;SDS011;57318;56.232;43.944;2022-10-22T12:45:55;20.88;;;9.35;;
69979;SDS011;57318;56.232;43.944;2022-10-22T12:48:26;19.92;;;8.77;;
69979;SDS011;57318;56.232;43.944;2022-10-22T12:50:54;18.90;;;9.00;;
69979;SDS011;57318;56.232;43.944;2022-10-22T12:53:29;18.13;;;9.07;;
69979;SDS011;57318;56.232;43.944;2022-10-22T12:56:00;16.07;;;8.70;;
69979;SDS011;57318;56.232;43.944;2022-10-22T12:58:29;17.75;;;8.52;;
69979;SDS011;57318;56.232;43.944;2022-10-22T13:01:01;13.75;;;7.10;;
69979;SDS011;57318;56.232;43.944;2022-10-22T13:03:34;15.23;;;7.90;;
69979;SDS011;57318;56.232;43.944;2022-10-22T13:06:22;14.32;;;7.78;;
69979;SDS011;57318;56.232;43.944;2022-10-22T13:11:30;15.00;;;8.27;;
69979;SDS011;57318;56.232;43.944;2022-10-22T13:14:01;14.30;;;8.60;;
69979;SDS011;57318;56.232;43.944;2022-10-22T13:16:39;15.10;;;8.15;;
69979;SDS011;57318;56.232;43.944;2022-10-22T13:19:31;20.10;;;8.20;;
69979;SDS011;57318;56.232;43.944;2022-10-22T13:22:00;12.93;;;6.72;;
69979;SDS011;57318;56.232;43.944;2022-10-22T13:24:26;13.10;;;8.07;;
69979;SDS011;57318;56.232;43.944;2022-10-22T13:26:54;12.43;;;6.88;;
69979;SDS011;57318;56.232;43.944;2022-10-22T13:29:20;10.77;;;6.23;;
69979;SDS011;57318;56.232;43.944;2022-10-22T13:31:49;12.40;;;6.40;;
69979;SDS011;57318;56.232;43.944;2022-10-22T13:34:17;13.90;;;6.65;;
69979;SDS011;57318;56.232;43.944;2022-10-22T13:36:45;11.60;;;7.10;;
69979;SDS011;57318;56.232;43.944;2022-10-22T13:39:21;16.85;;;8.55;;
69979;SDS011;57318;56.232;43.944;2022-10-22T13:41:48;17.92;;;10.15;;
69979;SDS011;57318;56.232;43.944;2022-10-22T13:44:15;20.95;;;10.27;;
69979;SDS011;57318;56.232;43.944;2022-10-22T13:46:42;23.77;;;10.52;;
69979;SDS011;57318;56.232;43.944;2022-10-22T13:49:13;21.77;;;10.63;;
69979;SDS011;57318;56.232;43.944;2022-10-22T13:51:41;16.95;;;9.15;;
69979;SDS011;57318;56.232;43.944;2022-10-22T13:54:14;20.63;;;10.07;;
69979;SDS011;57318;56.232;43.944;2022-10-22T13:56:42;23.35;;;11.20;;
69979;SDS011;57318;56.232;43.944;2022-10-22T13:59:08;22.43;;;10.43;;
69979;SDS011;57318;56.232;43.944;2022-10-22T14:01:34;23.83;;;9.63;;
69979;SDS011;57318;56.232;43.944;2022-10-22T14:04:02;17.85;;;10.10;;
69979;SDS011;57318;56.232;43.944;2022-10-22T14:06:29;16.75;;;9.50;;
69979;SDS011;57318;56.232;43.944;2022-10-22T14:09:01;17.35;;;9.60;;
69979;SDS011;57318;56.232;43.944;2022-10-22T14:11:29;20.42;;;9.48;;
69979;SDS011;57318;56.232;43.944;2022-10-22T14:13:56;18.55;;;9.20;;
69979;SDS011;57318;56.232;43.944;2022-10-22T14:16:23;21.80;;;9.57;;
69979;SDS011;57318;56.232;43.944;2022-10-22T14:18:51;21.50;;;10.13;;
69979;SDS011;57318;56.232;43.944;2022-10-22T14:21:18;17.98;;;9.07;;
69979;SDS011;57318;56.232;43.944;2022-10-22T14:23:45;19.10;;;9.17;;
69979;SDS011;57318;56.232;43.944;2022-10-22T14:26:25;20.30;;;9.68;;
69979;SDS011;57318;56.232;43.944;2022-10-22T14:28:54;18.83;;;9.35;;
69979;SDS011;57318;56.232;43.944;2022-10-22T14:31:20;19.60;;;9.93;;
69979;SDS011;57318;56.232;43.944;2022-10-22T14:33:45;20.67;;;10.30;;
69979;SDS011;57318;56.232;43.944;2022-10-22T14:36:12;20.80;;;10.50;;
69979;SDS011;57318;56.232;43.944;2022-10-22T14:38:38;17.90;;;9.57;;
69979;SDS011;57318;56.232;43.944;2022-10-22T14:41:09;18.73;;;9.93;;
69979;SDS011;57318;56.232;43.944;2022-10-22T14:43:49;22.75;;;9.95;;
69979;SDS011;57318;56.232;43.944;2022-10-22T14:46:16;22.58;;;9.68;;
69979;SDS011;57318;56.232;43.944;2022-10-22T14:48:42;17.83;;;9.25;;
69979;SDS011;57318;56.232;43.944;2022-10-22T14:51:12;17.30;;;10.10;;
69979;SDS011;57318;56.232;43.944;2022-10-22T14:53:39;24.42;;;11.18;;
69979;SDS011;57318;56.232;43.944;2022-10-22T14:56:05;21.02;;;10.75;;
69979;SDS011;57318;56.232;43.944;2022-10-22T14:58:33;25.40;;;11.65;;
69979;SDS011;57318;56.232;43.944;2022-10-22T15:01:00;28.00;;;12.47;;
69979;SDS011;57318;56.232;43.944;2022-10-22T15:03:27;22.73;;;11.60;;
69979;SDS011;57318;56.232;43.944;2022-10-22T15:05:52;26.37;;;12.57;;
69979;SDS011;57318;56.232;43.944;2022-10-22T15:08:19;27.10;;;12.38;;
69979;SDS011;57318;56.232;43.944;2022-10-22T15:10:46;25.17;;;11.83;;
69979;SDS011;57318;56.232;43.944;2022-10-22T15:13:21;22.88;;;11.30;;
69979;SDS011;57318;56.232;43.944;2022-10-22T15:15:47;19.87;;;10.77;;
69979;SDS011;57318;56.232;43.944;2022-10-22T15:18:12;23.90;;;11.47;;
69979;SDS011;57318;56.232;43.944;2022-10-22T15:20:38;18.60;;;10.43;;
69979;SDS011;57318;56.232;43.944;2022-10-22T15:23:03;24.07;;;11.97;;
69979;SDS011;57318;56.232;43.944;2022-10-22T15:25:29;20.43;;;10.97;;
69979;SDS011;57318;56.232;43.944;2022-10-22T15:27:55;20.00;;;10.50;;
69979;SDS011;57318;56.232;43.944;2022-10-22T15:30:20;25.30;;;11.53;;
69979;SDS011;57318;56.232;43.944;2022-10-22T15:32:46;25.73;;;11.43;;
69979;SDS011;57318;56.232;43.944;2022-10-22T15:35:12;28.00;;;11.77;;
69979;SDS011;57318;56.232;43.944;2022-10-22T15:37:37;19.03;;;10.60;;
69979;SDS011;57318;56.232;43.944;2022-10-22T15:40:04;22.93;;;10.73;;
69979;SDS011;57318;56.232;43.944;2022-10-22T15:42:32;21.60;;;9.93;;
69979;SDS011;57318;56.232;43.944;2022-10-22T15:44:58;19.83;;;9.40;;
69979;SDS011;57318;56.232;43.944;2022-10-22T15:47:24;22.25;;;10.32;;
69979;SDS011;57318;56.232;43.944;2022-10-22T15:49:53;24.40;;;10.30;;
69979;SDS011;57318;56.232;43.944;2022-10-22T15:52:19;20.17;;;10.27;;
69979;SDS011;57318;56.232;43.944;2022-10-22T15:54:47;19.55;;;9.55;;
69979;SDS011;57318;56.232;43.944;2022-10-22T15:57:13;17.53;;;9.40;;
69979;SDS011;57318;56.232;43.944;2022-10-22T15:59:39;17.67;;;9.80;;
69979;SDS011;57318;56.232;43.944;2022-10-22T16:02:04;17.27;;;9.60;;
69979;SDS011;57318;56.232;43.944;2022-10-22T16:04:31;18.60;;;9.60;;
69979;SDS011;57318;56.232;43.944;2022-10-22T16:06:57;16.73;;;9.70;;
69979;SDS011;57318;56.232;43.944;2022-10-22T16:09:23;17.93;;;9.60;;
69979;SDS011;57318;56.232;43.944;2022-10-22T16:11:51;17.55;;;9.73;;
69979;SDS011;57318;56.232;43.944;2022-10-22T16:14:18;19.85;;;8.95;;
69979;SDS011;57318;56.232;43.944;2022-10-22T16:16:46;17.35;;;9.43;;
69979;SDS011;57318;56.232;43.944;2022-10-22T16:19:14;17.45;;;9.60;;
69979;SDS011;57318;56.232;43.944;2022-10-22T16:21:41;15.18;;;8.57;;
69979;SDS011;57318;56.232;43.944;2022-10-22T16:24:07;18.85;;;9.82;;
69979;SDS011;57318;56.232;43.944;2022-10-22T16:26:33;15.38;;;9.13;;
69979;SDS011;57318;56.232;43.944;2022-10-22T16:28:59;18.02;;;9.18;;